createdAt,value
2022-08-24T00:00:35.267Z,83.50
2022-08-24T00:03:02.810Z,83.70
2022-08-24T00:05:30.068Z,83.60
2022-08-24T00:07:57.202Z,83.60
2022-08-24T00:10:24.516Z,83.90
2022-08-24T00:12:51.294Z,84.00
2022-08-24T00:15:18.663Z,84.30
2022-08-24T00:17:45.551Z,84.30
2022-08-24T00:20:13.495Z,84.30
2022-08-24T00:22:41.257Z,84.50
2022-08-24T00:25:10.555Z,84.10
2022-08-24T00:27:38.773Z,84.20
2022-08-24T00:30:09.648Z,84.40
2022-08-24T00:32:37.908Z,84.40
2022-08-24T00:35:07.419Z,84.40
2022-08-24T00:37:34.647Z,84.10
2022-08-24T00:40:01.717Z,84.10
2022-08-24T00:42:28.614Z,83.80
2022-08-24T00:44:55.493Z,84.00
2022-08-24T00:47:27.824Z,84.00
2022-08-24T00:50:10.187Z,83.40
2022-08-24T00:52:43.922Z,83.40
2022-08-24T00:55:42.695Z,83.60
2022-08-24T00:58:20.664Z,83.30
2022-08-24T01:00:54.826Z,84.00
2022-08-24T01:03:21.773Z,84.10
2022-08-24T01:05:48.675Z,83.80
2022-08-24T01:08:15.840Z,84.20
2022-08-24T01:10:50.339Z,84.00
2022-08-24T01:13:17.951Z,84.10
2022-08-24T01:15:51.118Z,84.20
2022-08-24T01:18:40.341Z,84.30
2022-08-24T01:21:38.259Z,84.20
2022-08-24T01:24:11.224Z,84.20
2022-08-24T01:26:43.816Z,84.30
2022-08-24T01:29:23.719Z,84.50
2022-08-24T01:31:51.444Z,84.60
2022-08-24T01:34:18.374Z,84.60
2022-08-24T01:36:52.107Z,84.70
2022-08-24T01:39:35.571Z,85.00
2022-08-24T01:42:03.494Z,85.10
2022-08-24T01:44:34.562Z,85.00
2022-08-24T01:47:07.452Z,85.50
2022-08-24T01:49:38.504Z,85.30
2022-08-24T01:52:07.291Z,85.30
2022-08-24T01:54:34.715Z,85.90
2022-08-24T01:57:02.107Z,86.30
2022-08-24T01:59:29.053Z,86.10
2022-08-24T02:02:01.780Z,86.60
2022-08-24T02:04:28.742Z,86.20
2022-08-24T02:06:55.594Z,86.00
2022-08-24T02:09:22.929Z,86.10
2022-08-24T02:11:52.717Z,86.50
2022-08-24T02:14:20.263Z,86.40
2022-08-24T02:16:47.893Z,86.30
2022-08-24T02:19:14.831Z,86.30
2022-08-24T02:21:41.693Z,86.10
2022-08-24T02:24:09.196Z,85.90
2022-08-24T02:26:36.074Z,85.80
2022-08-24T02:29:03.653Z,85.90
2022-08-24T02:31:32.507Z,85.50
2022-08-24T02:33:59.752Z,85.00
2022-08-24T02:36:26.789Z,85.20
2022-08-24T02:38:55.166Z,85.50
2022-08-24T02:41:24.727Z,85.20
2022-08-24T02:43:52.815Z,85.30
2022-08-24T02:46:26.135Z,85.10
2022-08-24T02:49:03.599Z,85.30
2022-08-24T02:51:42.267Z,85.00
2022-08-24T02:54:14.044Z,84.30
2022-08-24T02:56:40.876Z,85.00
2022-08-24T02:59:07.666Z,84.90
2022-08-24T03:01:34.615Z,85.10
2022-08-24T03:04:01.683Z,84.80
2022-08-24T03:06:28.629Z,85.60
2022-08-24T03:08:57.078Z,85.60
2022-08-24T03:11:27.978Z,85.20
2022-08-24T03:13:57.507Z,85.40
2022-08-24T03:16:24.440Z,85.10
2022-08-24T03:18:51.611Z,85.60
2022-08-24T03:21:18.456Z,85.70
2022-08-24T03:23:45.332Z,85.60
2022-08-24T03:26:12.732Z,85.10
2022-08-24T03:28:39.578Z,84.40
2022-08-24T03:31:07.144Z,84.60
2022-08-24T03:33:34.582Z,83.20
2022-08-24T03:36:01.517Z,83.60
2022-08-24T03:38:28.446Z,83.50
2022-08-24T03:40:55.692Z,82.90
2022-08-24T03:43:41.286Z,82.70
2022-08-24T03:46:09.391Z,82.60
2022-08-24T03:48:36.701Z,82.10
2022-08-24T03:51:03.838Z,81.90
2022-08-24T03:53:30.725Z,81.60
2022-08-24T03:55:57.562Z,81.40
2022-08-24T03:58:24.426Z,80.60
2022-08-24T04:00:51.355Z,80.40
2022-08-24T04:03:18.736Z,79.20
2022-08-24T04:05:45.607Z,77.90
2022-08-24T04:08:15.141Z,76.30
2022-08-24T04:10:45.242Z,75.30
2022-08-24T04:13:12.267Z,75.00
2022-08-24T04:15:40.978Z,74.90
2022-08-24T04:18:08.312Z,74.40
2022-08-24T04:20:42.681Z,73.60
2022-08-24T04:23:13.025Z,73.60
2022-08-24T04:25:45.493Z,72.80
2022-08-24T04:28:13.852Z,72.60
2022-08-24T04:30:42.989Z,72.90
2022-08-24T04:33:11.749Z,72.30
2022-08-24T04:35:41.032Z,72.00
2022-08-24T04:38:08.764Z,71.90
2022-08-24T04:40:39.446Z,71.50
2022-08-24T04:43:07.088Z,71.50
2022-08-24T04:45:34.499Z,71.90
2022-08-24T04:48:01.563Z,72.00
2022-08-24T04:50:28.344Z,71.90
2022-08-24T04:52:55.177Z,71.30
2022-08-24T04:55:22.037Z,70.90
2022-08-24T04:57:48.799Z,71.00
2022-08-24T05:00:16.080Z,70.70
2022-08-24T05:02:45.050Z,70.60
2022-08-24T05:05:12.455Z,70.50
2022-08-24T05:07:39.586Z,71.40
2022-08-24T05:10:08.908Z,70.60
2022-08-24T05:12:35.827Z,70.60
2022-08-24T05:15:02.903Z,70.40
2022-08-24T05:17:30.866Z,69.40
2022-08-24T05:19:58.709Z,70.10
2022-08-24T05:22:25.492Z,69.80
2022-08-24T05:24:52.357Z,69.70
2022-08-24T05:27:19.463Z,69.60
2022-08-24T05:29:46.591Z,69.50
2022-08-24T05:32:13.596Z,69.10
2022-08-24T05:34:40.396Z,69.60
2022-08-24T05:37:07.167Z,68.80
2022-08-24T05:39:34.054Z,68.10
2022-08-24T05:42:00.950Z,67.80
2022-08-24T05:44:31.417Z,67.90
2022-08-24T05:46:59.173Z,67.70
2022-08-24T05:49:27.100Z,66.70
2022-08-24T05:51:55.097Z,66.20
2022-08-24T05:54:23.392Z,67.10
2022-08-24T05:56:50.588Z,65.00
2022-08-24T05:59:19.685Z,66.10
2022-08-24T06:01:46.873Z,66.60
2022-08-24T06:04:14.350Z,65.90
2022-08-24T06:06:42.157Z,66.30
2022-08-24T06:09:11.861Z,65.60
2022-08-24T06:11:40.526Z,65.40
2022-08-24T06:14:13.725Z,65.10
2022-08-24T06:16:44.145Z,65.20
2022-08-24T06:19:15.141Z,64.00
2022-08-24T06:21:42.482Z,64.90
2022-08-24T06:24:09.386Z,65.00
2022-08-24T06:26:54.842Z,65.10
2022-08-24T06:29:22.000Z,64.60
2022-08-24T06:31:54.051Z,63.50
2022-08-24T06:34:21.751Z,63.90
2022-08-24T06:36:48.614Z,63.30
2022-08-24T06:39:15.513Z,63.30
2022-08-24T06:41:44.232Z,64.00
2022-08-24T06:44:11.117Z,63.50
2022-08-24T06:46:39.945Z,63.80
2022-08-24T06:49:06.818Z,63.00
2022-08-24T06:51:33.864Z,63.50
2022-08-24T06:54:00.859Z,63.10
2022-08-24T06:56:28.236Z,62.70
2022-08-24T06:58:55.477Z,62.10
2022-08-24T07:01:25.567Z,63.20
2022-08-24T07:03:52.892Z,63.50
2022-08-24T07:06:20.173Z,64.00
2022-08-24T07:08:47.528Z,64.50
2022-08-24T07:11:17.680Z,64.60
2022-08-24T07:13:49.394Z,64.50
2022-08-24T07:16:20.885Z,64.50
2022-08-24T07:18:50.302Z,65.00
2022-08-24T07:21:19.701Z,64.60
2022-08-24T07:23:48.106Z,65.30
2022-08-24T07:26:23.046Z,65.20
2022-08-24T07:28:56.214Z,65.40
2022-08-24T07:31:23.166Z,64.90
2022-08-24T07:33:50.004Z,64.30
2022-08-24T07:36:22.650Z,63.80
2022-08-24T07:38:54.325Z,63.80
2022-08-24T07:41:51.298Z,62.40
2022-08-24T07:44:10.933Z,63.50
2022-08-24T07:46:41.237Z,63.20
2022-08-24T07:49:12.423Z,62.90
2022-08-24T07:51:47.018Z,63.00
2022-08-24T07:54:15.244Z,62.90
2022-08-24T07:56:42.919Z,63.30
2022-08-24T07:59:13.291Z,63.40
2022-08-24T08:01:41.397Z,63.60
2022-08-24T08:04:08.673Z,63.00
2022-08-24T08:06:36.273Z,63.50
2022-08-24T08:09:05.126Z,63.00
2022-08-24T08:11:32.240Z,62.00
2022-08-24T08:13:59.351Z,61.70
2022-08-24T08:16:26.375Z,61.80
2022-08-24T08:19:09.258Z,60.70
2022-08-24T08:22:06.615Z,61.50
2022-08-24T08:24:33.782Z,62.00
2022-08-24T08:27:00.882Z,61.70
2022-08-24T08:29:28.476Z,61.80
2022-08-24T08:31:55.923Z,62.10
2022-08-24T08:34:23.056Z,60.90
2022-08-24T08:36:50.610Z,61.20
2022-08-24T08:39:19.970Z,61.20
2022-08-24T08:41:59.143Z,60.10
2022-08-24T08:44:33.206Z,60.40
2022-08-24T08:47:37.630Z,60.80
2022-08-24T08:50:08.152Z,61.60
2022-08-24T08:53:12.724Z,61.70
2022-08-24T08:55:53.421Z,61.70
2022-08-24T08:58:41.233Z,60.90
2022-08-24T09:01:35.190Z,61.30
2022-08-24T09:04:38.484Z,60.40
2022-08-24T09:07:08.618Z,59.00
2022-08-24T09:10:12.822Z,59.50
2022-08-24T09:13:09.682Z,59.30
2022-08-24T09:16:11.210Z,58.90
2022-08-24T09:19:02.495Z,58.20
2022-08-24T09:21:58.247Z,58.80
2022-08-24T09:24:42.754Z,59.10
2022-08-24T09:27:23.942Z,58.80
2022-08-24T09:29:53.683Z,58.30
2022-08-24T09:32:50.802Z,58.70
2022-08-24T09:35:32.441Z,58.40
2022-08-24T09:38:29.910Z,57.80
2022-08-24T09:41:23.937Z,57.50
2022-08-24T09:44:05.807Z,57.80
2022-08-24T09:47:03.501Z,58.00
2022-08-24T09:49:42.258Z,57.90
2022-08-24T09:52:29.957Z,58.30
2022-08-24T09:55:09.088Z,57.50
2022-08-24T09:58:17.521Z,58.10
2022-08-24T10:01:03.777Z,57.60
2022-08-24T10:03:53.817Z,57.40
2022-08-24T10:06:36.461Z,57.30
2022-08-24T10:09:24.152Z,57.70
2022-08-24T10:11:54.066Z,58.20
2022-08-24T10:14:44.827Z,57.90
2022-08-24T10:17:14.396Z,57.90
2022-08-24T10:19:53.399Z,57.90
2022-08-24T10:22:20.216Z,57.40
2022-08-24T10:24:53.650Z,57.80
2022-08-24T10:27:46.450Z,57.50
2022-08-24T10:30:16.004Z,57.50
2022-08-24T10:33:09.122Z,57.70
2022-08-24T10:35:48.241Z,57.30
2022-08-24T10:38:49.449Z,57.10
2022-08-24T10:41:45.943Z,57.50
2022-08-24T10:44:31.274Z,57.70
2022-08-24T10:46:58.899Z,57.50
2022-08-24T10:49:56.061Z,57.10
2022-08-24T10:52:22.797Z,56.90
2022-08-24T10:54:49.993Z,57.20
2022-08-24T10:57:55.581Z,57.00
2022-08-24T11:00:27.767Z,56.20
2022-08-24T11:03:15.723Z,56.50
2022-08-24T11:05:49.540Z,56.70
2022-08-24T11:08:23.633Z,56.70
2022-08-24T11:11:13.450Z,56.60
2022-08-24T11:14:00.275Z,56.70
2022-08-24T11:16:42.974Z,57.50
2022-08-24T11:19:32.649Z,57.90
2022-08-24T11:22:21.682Z,57.40
2022-08-24T11:24:52.026Z,57.60
2022-08-24T11:27:24.962Z,57.50
2022-08-24T11:29:51.845Z,57.40
2022-08-24T11:32:33.554Z,57.40
2022-08-24T11:35:18.897Z,57.10
2022-08-24T11:37:47.370Z,56.90
2022-08-24T11:40:15.822Z,56.90
2022-08-24T11:43:13.309Z,56.90
2022-08-24T11:46:11.557Z,57.00
2022-08-24T11:48:49.670Z,56.90
2022-08-24T11:51:40.865Z,57.00
2022-08-24T11:54:34.767Z,57.20
2022-08-24T11:57:09.672Z,57.70
2022-08-24T11:59:42.711Z,57.50
2022-08-24T12:02:17.695Z,57.30
2022-08-24T12:05:25.153Z,58.00
2022-08-24T12:08:31.154Z,57.50
2022-08-24T12:11:33.936Z,57.70
2022-08-24T12:14:30.330Z,57.90
2022-08-24T12:17:14.762Z,57.90
2022-08-24T12:19:55.604Z,57.90
2022-08-24T12:22:25.089Z,58.50
2022-08-24T12:24:57.114Z,57.40
2022-08-24T12:27:28.491Z,57.80
2022-08-24T12:30:18.182Z,57.70
2022-08-24T12:33:02.467Z,58.10
2022-08-24T12:35:44.323Z,57.70
2022-08-24T12:38:15.154Z,57.80
2022-08-24T12:40:56.573Z,57.60
2022-08-24T12:43:38.555Z,57.70
2022-08-24T12:46:06.979Z,57.80
2022-08-24T12:48:55.932Z,58.10
2022-08-24T12:51:22.965Z,57.70
2022-08-24T12:54:19.081Z,58.00
2022-08-24T12:56:49.067Z,58.10
2022-08-24T12:59:30.291Z,57.70
2022-08-24T13:02:01.673Z,58.00
2022-08-24T13:04:53.030Z,57.30
2022-08-24T13:07:19.998Z,57.40
2022-08-24T13:10:16.080Z,57.30
2022-08-24T13:12:45.754Z,57.50
2022-08-24T13:15:21.850Z,57.40
2022-08-24T13:17:58.831Z,57.40
2022-08-24T13:20:34.981Z,57.50
2022-08-24T13:23:16.583Z,58.10
2022-08-24T13:25:52.129Z,58.00
2022-08-24T13:28:22.326Z,57.80
2022-08-24T13:31:25.510Z,58.20
2022-08-24T13:34:04.541Z,57.60
2022-08-24T13:36:50.440Z,57.50
2022-08-24T13:39:33.095Z,58.00
2022-08-24T13:42:22.222Z,57.40
2022-08-24T13:44:57.508Z,57.30
2022-08-24T13:47:46.264Z,57.20
2022-08-24T13:50:31.445Z,57.30
2022-08-24T13:53:33.018Z,57.40
2022-08-24T13:56:22.712Z,57.30
2022-08-24T13:59:22.686Z,57.60
2022-08-24T14:02:16.219Z,57.60
2022-08-24T14:04:49.586Z,58.30
2022-08-24T14:07:56.452Z,58.70
2022-08-24T14:10:32.606Z,57.50
2022-08-24T14:13:26.539Z,57.60
2022-08-24T14:16:44.298Z,58.20
2022-08-24T14:19:32.333Z,58.40
2022-08-24T14:22:04.924Z,57.60
2022-08-24T14:24:55.081Z,58.00
2022-08-24T14:27:43.357Z,57.90
2022-08-24T14:30:23.571Z,58.90
2022-08-24T14:33:01.558Z,58.90
2022-08-24T14:35:47.245Z,59.40
2022-08-24T14:38:21.402Z,59.90
2022-08-24T14:41:18.070Z,60.00
2022-08-24T14:44:01.528Z,60.00
2022-08-24T14:46:40.740Z,60.40
2022-08-24T14:49:45.254Z,60.30
2022-08-24T14:52:39.514Z,60.10
2022-08-24T14:55:44.309Z,60.30
2022-08-24T14:58:51.821Z,60.20
2022-08-24T15:01:34.521Z,60.40
2022-08-24T15:04:37.200Z,60.30
2022-08-24T15:07:26.624Z,60.30
2022-08-24T15:09:55.875Z,60.50
2022-08-24T15:12:28.562Z,60.20
2022-08-24T15:15:04.880Z,60.40
2022-08-24T15:18:24.901Z,60.40
2022-08-24T15:21:03.718Z,60.50
2022-08-24T15:23:53.421Z,60.60
2022-08-24T15:26:45.392Z,61.00
2022-08-24T15:29:19.995Z,61.10
2022-08-24T15:32:16.414Z,61.40
2022-08-24T15:34:53.502Z,61.40
2022-08-24T15:37:32.636Z,61.50
2022-08-24T15:40:01.779Z,61.60
2022-08-24T15:42:32.397Z,61.80
2022-08-24T15:45:02.560Z,61.80
2022-08-24T15:47:33.287Z,61.90
2022-08-24T15:50:06.707Z,62.00
2022-08-24T15:52:33.677Z,62.10
2022-08-24T15:55:04.397Z,62.30
2022-08-24T15:57:41.515Z,62.40
2022-08-24T16:00:40.514Z,62.70
2022-08-24T16:03:43.098Z,62.50
2022-08-24T16:06:35.330Z,62.80
2022-08-24T16:09:08.313Z,63.00
2022-08-24T16:11:39.237Z,63.20
2022-08-24T16:14:25.467Z,63.10
2022-08-24T16:16:55.168Z,63.40
2022-08-24T16:19:33.679Z,63.50
2022-08-24T16:22:02.971Z,63.40
2022-08-24T16:24:36.326Z,63.40
2022-08-24T16:27:18.309Z,63.70
2022-08-24T16:29:51.071Z,63.70
2022-08-24T16:32:33.677Z,63.80
2022-08-24T16:35:19.846Z,63.90
2022-08-24T16:37:47.075Z,64.00
2022-08-24T16:40:14.591Z,64.10
2022-08-24T16:42:42.425Z,64.10
2022-08-24T16:45:13.405Z,64.20
2022-08-24T16:47:40.570Z,64.30
2022-08-24T16:50:08.037Z,64.60
2022-08-24T16:52:36.240Z,64.80
2022-08-24T16:55:05.027Z,65.00
2022-08-24T16:57:36.974Z,65.10
2022-08-24T17:00:09.927Z,65.30
2022-08-24T17:02:38.091Z,65.50
2022-08-24T17:05:06.002Z,65.70
2022-08-24T17:07:34.088Z,65.90
2022-08-24T17:10:04.657Z,66.20
2022-08-24T17:12:31.887Z,66.30
2022-08-24T17:14:59.473Z,66.50
2022-08-24T17:17:27.070Z,66.70
2022-08-24T17:19:55.741Z,66.90
2022-08-24T17:22:23.880Z,67.20
2022-08-24T17:24:53.713Z,67.20
2022-08-24T17:27:28.984Z,67.40
2022-08-24T17:29:56.290Z,67.60
2022-08-24T17:32:23.722Z,67.80
2022-08-24T17:34:50.623Z,68.00
2022-08-24T17:37:17.886Z,68.10
2022-08-24T17:39:44.913Z,68.30
2022-08-24T17:42:33.715Z,68.50
2022-08-24T17:44:59.312Z,68.80
2022-08-24T17:47:26.736Z,68.90
2022-08-24T17:49:53.602Z,69.20
2022-08-24T17:52:20.439Z,69.40
2022-08-24T17:54:47.239Z,69.50
2022-08-24T17:57:14.551Z,69.50
2022-08-24T17:59:41.430Z,70.30
2022-08-24T18:02:12.608Z,69.70
2022-08-24T18:04:40.812Z,69.60
2022-08-24T18:07:13.636Z,69.60
2022-08-24T18:09:48.980Z,70.00
2022-08-24T18:12:17.788Z,69.90
2022-08-24T18:14:45.089Z,70.20
2022-08-24T18:17:20.093Z,70.30
2022-08-24T18:19:50.571Z,70.50
2022-08-24T18:22:17.403Z,70.60
2022-08-24T18:24:44.733Z,70.50
2022-08-24T18:27:18.324Z,70.70
2022-08-24T18:29:47.018Z,70.70
2022-08-24T18:32:21.809Z,70.80
2022-08-24T18:34:49.039Z,71.00
2022-08-24T18:37:16.223Z,71.20
2022-08-24T18:39:43.181Z,71.30
2022-08-24T18:42:12.851Z,71.40
2022-08-24T18:44:40.120Z,71.50
2022-08-24T18:47:08.059Z,71.70
2022-08-24T18:49:35.589Z,71.80
2022-08-24T18:52:03.605Z,71.80
2022-08-24T18:54:35.856Z,72.10
2022-08-24T18:57:04.245Z,72.20
2022-08-24T18:59:31.332Z,72.30
2022-08-24T19:02:18.459Z,72.30
2022-08-24T19:04:47.516Z,72.60
2022-08-24T19:07:15.011Z,72.50
2022-08-24T19:09:41.962Z,72.80
2022-08-24T19:12:09.410Z,72.90
2022-08-24T19:14:37.558Z,73.00
2022-08-24T19:17:05.351Z,73.20
2022-08-24T19:19:32.688Z,73.20
2022-08-24T19:22:00.175Z,73.20
2022-08-24T19:24:31.266Z,73.50
2022-08-24T19:27:01.941Z,73.80
2022-08-24T19:29:54.388Z,73.70
2022-08-24T19:32:22.398Z,73.80
2022-08-24T19:34:50.637Z,73.70
2022-08-24T19:37:18.026Z,74.00
2022-08-24T19:39:45.908Z,74.00
2022-08-24T19:42:16.168Z,73.90
2022-08-24T19:45:21.397Z,73.90
2022-08-24T19:47:48.291Z,74.10
2022-08-24T19:50:20.276Z,74.30
2022-08-24T19:52:48.346Z,74.10
2022-08-24T19:55:15.640Z,74.20
2022-08-24T19:57:48.129Z,74.00
2022-08-24T20:00:17.678Z,74.10
2022-08-24T20:02:56.705Z,73.70
2022-08-24T20:05:28.316Z,73.70
2022-08-24T20:07:56.613Z,73.90
2022-08-24T20:10:24.687Z,74.20
2022-08-24T20:12:52.027Z,74.30
2022-08-24T20:15:20.104Z,74.60
2022-08-24T20:17:48.477Z,74.70
2022-08-24T20:20:18.105Z,74.50
2022-08-24T20:22:45.062Z,74.80
2022-08-24T20:25:11.961Z,74.50
2022-08-24T20:27:39.410Z,74.50
2022-08-24T20:30:07.229Z,75.00
2022-08-24T20:32:34.234Z,74.90
2022-08-24T20:35:01.816Z,75.10
2022-08-24T20:37:30.886Z,75.20
2022-08-24T20:39:58.917Z,75.30
2022-08-24T20:42:27.612Z,75.40
2022-08-24T20:44:55.242Z,75.30
2022-08-24T20:47:22.865Z,75.50
2022-08-24T20:49:50.112Z,76.00
2022-08-24T20:52:17.449Z,76.10
2022-08-24T20:54:44.414Z,76.50
2022-08-24T20:57:16.936Z,77.20
2022-08-24T20:59:44.273Z,76.60
2022-08-24T21:02:11.517Z,76.80
2022-08-24T21:04:38.509Z,77.20
2022-08-24T21:07:05.264Z,77.10
2022-08-24T21:09:32.079Z,77.20
2022-08-24T21:11:59.164Z,77.30
2022-08-24T21:14:26.000Z,77.60
2022-08-24T21:16:53.756Z,77.40
2022-08-24T21:19:20.711Z,77.50
2022-08-24T21:21:47.467Z,77.60
2022-08-24T21:24:15.603Z,77.70
2022-08-24T21:26:42.720Z,78.40
2022-08-24T21:29:10.465Z,79.00
2022-08-24T21:31:37.601Z,79.30
2022-08-24T21:34:23.659Z,79.40
2022-08-24T21:36:52.481Z,79.00
2022-08-24T21:39:19.629Z,79.60
2022-08-24T21:41:46.551Z,79.50
2022-08-24T21:44:13.368Z,79.90
2022-08-24T21:46:40.880Z,80.10
2022-08-24T21:49:11.991Z,80.70
2022-08-24T21:51:40.022Z,80.30
2022-08-24T21:54:06.962Z,81.10
2022-08-24T21:56:35.626Z,80.60
2022-08-24T21:59:03.111Z,79.80
2022-08-24T22:01:29.964Z,80.30
2022-08-24T22:03:58.256Z,80.70
2022-08-24T22:06:30.539Z,81.70
2022-08-24T22:08:58.289Z,81.70
2022-08-24T22:11:25.141Z,83.10
2022-08-24T22:13:53.473Z,82.60
2022-08-24T22:16:20.893Z,82.90
2022-08-24T22:18:48.551Z,83.70
2022-08-24T22:21:19.311Z,84.50
2022-08-24T22:23:46.430Z,85.00
2022-08-24T22:26:13.314Z,85.50
2022-08-24T22:28:42.543Z,85.50
2022-08-24T22:31:37.327Z,86.10
2022-08-24T22:34:08.670Z,86.50
2022-08-24T22:36:35.706Z,87.00
2022-08-24T22:39:03.883Z,87.40
2022-08-24T22:41:32.457Z,88.00
2022-08-24T22:44:18.086Z,88.20
2022-08-24T22:46:48.627Z,88.20
2022-08-24T22:49:15.562Z,88.20
2022-08-24T22:51:43.294Z,88.50
2022-08-24T22:54:11.237Z,89.00
2022-08-24T22:56:41.593Z,89.00
2022-08-24T22:59:11.095Z,88.80
2022-08-24T23:01:40.329Z,89.20
2022-08-24T23:04:10.362Z,89.50
2022-08-24T23:06:37.575Z,90.00
2022-08-24T23:09:06.261Z,90.00
2022-08-24T23:11:34.132Z,90.20
2022-08-24T23:14:03.174Z,90.20
2022-08-24T23:16:32.909Z,90.00
2022-08-24T23:19:18.763Z,90.30
2022-08-24T23:21:45.556Z,90.10
2022-08-24T23:24:12.868Z,90.00
2022-08-24T23:26:41.031Z,90.10
2022-08-24T23:29:10.395Z,90.00
2022-08-24T23:31:37.383Z,90.20
2022-08-24T23:34:07.230Z,90.20
2022-08-24T23:36:35.401Z,89.80
2022-08-24T23:39:02.832Z,89.10
2022-08-24T23:41:32.563Z,88.50
2022-08-24T23:44:02.122Z,88.60
2022-08-24T23:46:29.392Z,89.30
2022-08-24T23:48:57.977Z,89.10
2022-08-24T23:51:27.399Z,88.90
2022-08-24T23:53:54.665Z,89.00
2022-08-24T23:56:31.571Z,89.30
2022-08-24T23:59:14.968Z,89.60
